Time;durP1;ratioP1;P1;durP2;ratioP2;P2;SDS_P1;SDS_P2;PMS_P1;PMS_P2;Temp;Humidity;BMP_temperature;BMP_pressure;BME280_temperature;BME280_humidity;BME280_pressure;Samples;Min_cycle;Max_cycle;Signal;HPM_P1;HPM_P2
2023/04/02 00:01:21;;;;;;;0.40;0.33;;;;;;;11.44;100.00;99344.69;4991488;28;21051;-52
2023/04/02 00:03:52;;;;;;;0.50;0.50;;;;;;;11.45;100.00;99349.06;5011961;28;20929;-52
2023/04/02 00:06:31;;;;;;;0.60;0.40;;;;;;;11.48;100.00;99343.59;5006450;28;20476;-52
2023/04/02 00:09:32;;;;;;;0.50;0.37;;;;;;;11.52;100.00;99350.53;4998923;28;20456;-52
2023/04/02 00:12:14;;;;;;;5.90;1.43;;;;;;;11.51;100.00;99351.47;5010233;28;20784;-52
2023/04/02 00:14:46;;;;;;;0.33;0.27;;;;;;;11.43;100.00;99350.94;5011641;28;20873;-51
2023/04/02 00:17:12;;;;;;;0.40;0.33;;;;;;;11.46;100.00;99357.91;5010957;28;20468;-52
2023/04/02 00:20:02;;;;;;;0.40;0.30;;;;;;;11.41;100.00;99365.25;5007867;28;20778;-52
2023/04/02 00:22:32;;;;;;;0.37;0.30;;;;;;;11.41;100.00;99367.91;5011411;28;20459;-52
2023/04/02 00:25:01;;;;;;;0.47;0.33;;;;;;;11.42;100.00;99373.16;5011511;28;20878;-52
2023/04/02 00:27:30;;;;;;;0.70;0.50;;;;;;;11.33;100.00;99378.91;5011278;28;20491;-52
2023/04/02 00:29:58;;;;;;;0.30;0.30;;;;;;;11.37;100.00;99383.13;5006880;28;20457;-52
2023/04/02 00:32:31;;;;;;;0.60;0.60;;;;;;;11.39;100.00;99380.44;5009213;28;20459;-51
2023/04/02 00:34:58;;;;;;;0.30;0.20;;;;;;;11.45;100.00;99382.81;4987127;28;20881;-52
2023/04/02 00:37:37;;;;;;;1.23;0.50;;;;;;;11.22;100.00;99391.84;5011174;28;20859;-52
2023/04/02 00:40:15;;;;;;;0.50;0.20;;;;;;;11.29;100.00;99390.63;5011134;28;20937;-53
2023/04/02 00:42:43;;;;;;;0.40;0.30;;;;;;;11.38;100.00;99392.88;4989142;28;20456;-52
2023/04/02 00:45:23;;;;;;;0.90;0.37;;;;;;;11.32;100.00;99392.28;5000149;28;20512;-52
2023/04/02 00:47:51;;;;;;;0.50;0.47;;;;;;;11.28;100.00;99394.22;5010386;28;21000;-52
2023/04/02 00:50:25;;;;;;;0.83;0.60;;;;;;;11.24;100.00;99397.97;5011030;28;20459;-52
2023/04/02 00:52:53;;;;;;;0.40;0.30;;;;;;;11.29;100.00;99401.28;5003264;28;20465;-52
2023/04/02 00:55:39;;;;;;;0.50;0.47;;;;;;;11.27;100.00;99392.50;5010888;28;20959;-52
2023/04/02 00:58:28;;;;;;;0.30;0.23;;;;;;;11.22;100.00;99397.16;4991751;28;20947;-52
2023/04/02 01:00:55;;;;;;;0.40;0.30;;;;;;;11.16;100.00;99393.00;4992463;28;20458;-52
2023/04/02 01:03:22;;;;;;;0.70;0.53;;;;;;;11.09;100.00;99403.97;5004529;28;21049;-52
2023/04/02 01:05:54;;;;;;;0.80;0.67;;;;;;;11.16;100.00;99403.63;5010491;28;20893;-52
2023/04/02 01:08:39;;;;;;;3.80;0.40;;;;;;;11.21;100.00;99403.41;5010300;28;20519;-52
2023/04/02 01:11:43;;;;;;;0.50;0.50;;;;;;;11.23;100.00;99399.75;5010513;28;20453;-52
2023/04/02 01:14:28;;;;;;;1.00;0.47;;;;;;;11.11;100.00;99405.63;4978993;28;20487;-52
2023/04/02 01:17:02;;;;;;;0.40;0.30;;;;;;;11.23;100.00;99405.06;5010449;28;20563;-52
2023/04/02 01:19:34;;;;;;;0.50;0.30;;;;;;;11.23;100.00;99399.75;5010349;28;20459;-52
2023/04/02 01:22:20;;;;;;;0.97;0.30;;;;;;;11.22;100.00;99406.00;4984752;28;20510;-52
2023/04/02 01:24:48;;;;;;;0.47;0.47;;;;;;;11.07;100.00;99409.34;5010232;28;20840;-52
2023/04/02 01:27:25;;;;;;;0.50;0.40;;;;;;;11.06;100.00;99420.06;5002416;28;20482;-52
2023/04/02 01:29:55;;;;;;;0.33;0.23;;;;;;;11.11;100.00;99416.28;4997256;28;20452;-52
2023/04/02 01:32:24;;;;;;;0.30;0.20;;;;;;;11.01;100.00;99422.94;4994476;28;20484;-52
2023/04/02 01:34:51;;;;;;;0.40;0.30;;;;;;;11.07;100.00;99419.13;5009884;28;20542;-52
2023/04/02 01:37:48;;;;;;;0.30;0.20;;;;;;;11.17;100.00;99417.78;5009936;28;20472;-52
2023/04/02 01:40:43;;;;;;;0.60;0.43;;;;;;;11.14;100.00;99421.47;4986795;28;20454;-52
2023/04/02 01:43:27;;;;;;;0.97;0.50;;;;;;;11.12;100.00;99433.97;5009660;28;20506;-52
2023/04/02 01:45:57;;;;;;;0.50;0.30;;;;;;;11.30;100.00;99434.91;4993400;28;20843;-52
2023/04/02 01:48:29;;;;;;;0.60;0.50;;;;;;;11.22;100.00;99435.25;5010359;28;20453;-52
2023/04/02 01:50:58;;;;;;;0.87;0.87;;;;;;;11.19;100.00;99438.06;5009866;28;20449;-52
2023/04/02 01:53:27;;;;;;;0.50;0.40;;;;;;;11.23;100.00;99434.31;5001819;28;20475;-52
2023/04/02 01:55:56;;;;;;;0.50;0.40;;;;;;;11.37;100.00;99446.13;5008218;28;20496;-52
2023/04/02 01:58:26;;;;;;;0.60;0.40;;;;;;;11.41;100.00;99440.63;5009580;28;20819;-52
2023/04/02 02:01:21;;;;;;;0.60;0.60;;;;;;;11.33;100.00;99440.09;4998492;28;20507;-52
2023/04/02 02:03:49;;;;;;;3.70;0.77;;;;;;;11.20;100.00;99441.59;5008901;28;20460;-52
2023/04/02 02:06:18;;;;;;;1.03;1.03;;;;;;;11.07;100.00;99443.06;5009621;28;20476;-52
2023/04/02 02:08:55;;;;;;;0.57;0.40;;;;;;;11.12;100.00;99451.72;5009787;28;20460;-52
2023/04/02 02:11:27;;;;;;;15.00;1.83;;;;;;;11.09;100.00;99446.50;4986890;28;20458;-52
2023/04/02 02:13:59;;;;;;;1.63;0.47;;;;;;;11.09;100.00;99460.66;5001611;28;20520;-52
2023/04/02 02:16:28;;;;;;;0.57;0.50;;;;;;;11.14;100.00;99461.34;5003793;28;20503;-52
2023/04/02 02:19:03;;;;;;;0.33;0.30;;;;;;;11.06;100.00;99458.16;5009470;28;20979;-52
2023/04/02 02:21:38;;;;;;;0.60;0.50;;;;;;;11.13;100.00;99469.41;5009501;28;20448;-53
2023/04/02 02:24:15;;;;;;;0.47;0.40;;;;;;;11.11;100.00;99465.94;4996380;28;20452;-53
2023/04/02 02:26:45;;;;;;;0.40;0.30;;;;;;;11.06;100.00;99473.25;5009299;28;20488;-53
2023/04/02 02:29:17;;;;;;;4.03;0.60;;;;;;;11.06;100.00;99475.91;5004798;28;20823;-52
2023/04/02 02:31:51;;;;;;;0.67;0.60;;;;;;;11.03;100.00;99476.06;5008819;28;20652;-52
2023/04/02 02:34:23;;;;;;;2.93;0.60;;;;;;;11.05;100.00;99480.38;5004278;28;20489;-52
2023/04/02 02:36:55;;;;;;;0.73;0.37;;;;;;;11.02;100.00;99479.63;5009210;28;20480;-52
2023/04/02 02:39:28;;;;;;;6.20;0.83;;;;;;;11.08;100.00;99484.69;5009213;28;20836;-51
2023/04/02 02:42:02;;;;;;;0.47;0.40;;;;;;;11.08;100.00;99485.53;5003795;28;20461;-52
2023/04/02 02:44:33;;;;;;;0.67;0.40;;;;;;;11.07;100.00;99488.28;5006333;28;20765;-52
2023/04/02 02:47:03;;;;;;;0.87;0.50;;;;;;;11.02;100.00;99493.81;5006135;28;20920;-52
2023/04/02 02:49:35;;;;;;;0.40;0.30;;;;;;;10.91;100.00;99496.91;5013296;28;20462;-52
2023/04/02 02:52:07;;;;;;;0.60;0.57;;;;;;;10.91;100.00;99499.56;5005833;28;20457;-52
2023/04/02 02:54:37;;;;;;;0.97;0.97;;;;;;;10.80;100.00;99493.84;5012821;28;20496;-52
2023/04/02 02:57:09;;;;;;;0.40;0.30;;;;;;;10.70;100.00;99497.84;5008238;28;20482;-52
2023/04/02 02:59:36;;;;;;;0.50;0.30;;;;;;;10.70;100.00;99499.63;5005242;28;20460;-52
2023/04/02 03:02:05;;;;;;;0.40;0.30;;;;;;;10.70;100.00;99505.81;5008907;28;20506;-51
2023/04/02 03:04:35;;;;;;;0.50;0.40;;;;;;;10.68;100.00;99511.16;5012864;28;20448;-51
2023/04/02 03:07:04;;;;;;;0.40;0.30;;;;;;;10.65;100.00;99505.13;5013002;28;20480;-51
2023/04/02 03:10:18;;;;;;;0.40;0.30;;;;;;;10.75;100.00;99509.13;5005573;28;20571;-52
2023/04/02 03:13:01;;;;;;;0.40;0.30;;;;;;;10.52;100.00;99519.84;5007626;28;20427;-52
2023/04/02 03:15:30;;;;;;;0.50;0.40;;;;;;;10.46;100.00;99515.66;5012494;28;21076;-53
2023/04/02 03:18:13;;;;;;;0.40;0.30;;;;;;;10.44;100.00;99516.66;5012986;28;20538;-52
2023/04/02 03:20:51;;;;;;;0.40;0.30;;;;;;;10.42;100.00;99522.03;4990264;28;20452;-51
2023/04/02 03:23:23;;;;;;;0.80;0.80;;;;;;;10.38;100.00;99528.38;5001839;28;20778;-51
2023/04/02 03:26:00;;;;;;;0.50;0.50;;;;;;;10.33;100.00;99527.69;5012118;28;20472;-51
2023/04/02 03:28:31;;;;;;;0.60;0.47;;;;;;;10.31;100.00;99533.06;5012454;28;20452;-51
2023/04/02 03:31:04;;;;;;;0.50;0.40;;;;;;;10.35;100.00;99533.81;5007195;28;20455;-51
2023/04/02 03:33:38;;;;;;;0.40;0.30;;;;;;;10.31;100.00;99540.19;5012453;28;20449;-51
2023/04/02 03:36:28;;;;;;;0.80;0.40;;;;;;;10.36;100.00;99549.69;5007175;28;20493;-51
2023/04/02 03:39:04;;;;;;;0.70;0.60;;;;;;;10.27;100.00;99550.03;5012170;28;20965;-51
2023/04/02 03:41:40;;;;;;;0.40;0.30;;;;;;;10.20;100.00;99553.84;5012288;28;20448;-52
2023/04/02 03:44:35;;;;;;;0.37;0.20;;;;;;;10.17;100.00;99561.94;5009915;28;20451;-51
2023/04/02 03:47:11;;;;;;;1.47;0.50;;;;;;;10.16;100.00;99560.19;5000683;28;20491;-51
2023/04/02 03:49:46;;;;;;;0.47;0.30;;;;;;;10.14;100.00;99570.00;4999303;28;20459;-52
2023/04/02 03:52:21;;;;;;;0.40;0.30;;;;;;;10.15;100.00;99571.75;5002981;28;20519;-51
2023/04/02 03:54:48;;;;;;;0.70;0.57;;;;;;;10.04;100.00;99576.59;5010396;28;20495;-52
2023/04/02 03:57:36;;;;;;;0.40;0.30;;;;;;;10.07;100.00;99584.44;5009193;28;21024;-52
2023/04/02 04:00:38;;;;;;;1.03;1.03;;;;;;;9.96;100.00;99586.63;5000789;28;20456;-51
2023/04/02 04:03:12;;;;;;;0.50;0.40;;;;;;;9.77;100.00;99591.75;4994105;28;20931;-51
2023/04/02 04:05:57;;;;;;;0.40;0.30;;;;;;;9.96;100.00;99598.13;5010615;28;20555;-52
2023/04/02 04:08:31;;;;;;;1.63;0.70;;;;;;;10.03;100.00;99590.81;5011734;28;20444;-52
2023/04/02 04:11:06;;;;;;;0.43;0.40;;;;;;;10.09;100.00;99594.06;5011829;28;20448;-52
2023/04/02 04:13:45;;;;;;;0.40;0.30;;;;;;;10.18;100.00;99607.94;4990752;28;20459;-52
2023/04/02 04:16:19;;;;;;;0.60;0.40;;;;;;;10.17;100.00;99604.41;5011782;28;20548;-53
2023/04/02 04:19:03;;;;;;;11.00;0.70;;;;;;;10.19;100.00;99610.53;5011514;28;20453;-52
2023/04/02 04:21:35;;;;;;;1.40;0.40;;;;;;;10.19;100.00;99620.28;5008660;28;20471;-51
2023/04/02 04:24:38;;;;;;;0.60;0.30;;;;;;;10.15;100.00;99626.66;5001696;28;20552;-52
2023/04/02 04:27:41;;;;;;;1.00;0.30;;;;;;;10.16;100.00;99628.38;5007481;28;20499;-50
2023/04/02 04:30:29;;;;;;;0.40;0.40;;;;;;;10.22;100.00;99629.03;4991029;28;20464;-51
2023/04/02 04:33:02;;;;;;;0.83;0.40;;;;;;;10.24;100.00;99629.84;4990361;28;21126;-52
2023/04/02 04:35:33;;;;;;;0.63;0.47;;;;;;;10.13;100.00;99631.13;4988686;28;20518;-51
2023/04/02 04:38:14;;;;;;;1.43;0.63;;;;;;;10.14;100.00;99640.81;5008391;28;20942;-51
2023/04/02 04:40:49;;;;;;;0.40;0.30;;;;;;;10.12;100.00;99646.19;5011067;28;20456;-50
2023/04/02 04:43:24;;;;;;;0.43;0.40;;;;;;;10.11;100.00;99647.13;5011147;28;21051;-51
2023/04/02 04:45:57;;;;;;;0.60;0.60;;;;;;;10.16;100.00;99654.94;4997734;28;20460;-51
2023/04/02 04:48:34;;;;;;;0.30;0.30;;;;;;;10.08;100.00;99649.91;4990383;28;20454;-51
2023/04/02 04:51:15;;;;;;;1.83;0.90;;;;;;;10.03;100.00;99657.19;5008378;28;20460;-49
2023/04/02 04:53:47;;;;;;;0.70;0.53;;;;;;;10.02;100.00;99656.31;5005303;28;20456;-51
2023/04/02 04:56:17;;;;;;;0.40;0.30;;;;;;;10.09;100.00;99660.47;5010757;28;20492;-51
2023/04/02 04:59:03;;;;;;;0.63;0.47;;;;;;;10.17;100.00;99661.97;5009975;28;20824;-51
2023/04/02 05:02:21;;;;;;;0.30;0.20;;;;;;;10.09;100.00;99662.25;5002346;28;20538;-52
2023/04/02 05:04:50;;;;;;;0.30;0.20;;;;;;;10.15;100.00;99675.31;4972964;28;20512;-50
2023/04/02 05:07:17;;;;;;;0.50;0.50;;;;;;;10.20;100.00;99681.31;5009008;28;20477;-52
2023/04/02 05:10:18;;;;;;;0.50;0.50;;;;;;;10.19;100.00;99681.38;5010583;28;20452;-51
2023/04/02 05:13:00;;;;;;;0.80;0.60;;;;;;;10.17;100.00;99680.56;4979646;28;20465;-51
2023/04/02 05:15:53;;;;;;;0.83;0.83;;;;;;;10.09;100.00;99694.97;4994494;28;20487;-51
2023/04/02 05:18:31;;;;;;;0.40;0.30;;;;;;;10.21;100.00;99701.69;5008448;28;20472;-51
2023/04/02 05:21:07;;;;;;;0.40;0.30;;;;;;;10.19;100.00;99705.28;4996061;28;20468;-49
2023/04/02 05:23:50;;;;;;;0.40;0.30;;;;;;;10.21;100.00;99698.13;4988787;28;20515;-50
2023/04/02 05:26:41;;;;;;;0.50;0.47;;;;;;;10.14;100.00;99705.44;4978624;28;20589;-49
2023/04/02 05:29:13;;;;;;;0.63;0.53;;;;;;;10.17;100.00;99712.44;5003734;28;20950;-50
2023/04/02 05:31:48;;;;;;;0.53;0.50;;;;;;;10.14;100.00;99713.38;5009991;28;20455;-50
2023/04/02 05:34:22;;;;;;;0.60;0.60;;;;;;;10.19;100.00;99713.25;5010271;28;20448;-49
2023/04/02 05:36:49;;;;;;;0.53;0.43;;;;;;;10.19;100.00;99723.88;5010007;28;20496;-52
2023/04/02 05:39:21;;;;;;;0.57;0.40;;;;;;;10.21;100.00;99724.69;5002071;28;20510;-50
2023/04/02 05:41:55;;;;;;;0.63;0.57;;;;;;;10.16;100.00;99727.50;5010187;28;20507;-49
2023/04/02 05:44:30;;;;;;;6.47;0.40;;;;;;;10.19;100.00;99735.34;4994381;28;20461;-50
2023/04/02 05:47:19;;;;;;;0.50;0.40;;;;;;;10.18;100.00;99733.63;5017535;28;20468;-48
2023/04/02 05:49:52;;;;;;;1.77;0.70;;;;;;;10.21;100.00;99749.47;4987967;28;20476;-51
2023/04/02 05:52:28;;;;;;;0.50;0.30;;;;;;;10.27;100.00;99741.28;4990176;28;21001;-49
2023/04/02 05:55:10;;;;;;;1.03;0.63;;;;;;;10.32;100.00;99743.78;5010003;28;20511;-50
2023/04/02 05:57:45;;;;;;;1.37;0.57;;;;;;;10.35;100.00;99754.28;5009414;28;20471;-49
2023/04/02 06:00:35;;;;;;;0.47;0.40;;;;;;;10.36;100.00;99756.91;4997780;28;21024;-50
2023/04/02 06:03:11;;;;;;;0.47;0.40;;;;;;;10.40;100.00;99765.63;5010315;28;20488;-51
2023/04/02 06:05:42;;;;;;;0.50;0.50;;;;;;;10.42;100.00;99762.94;5009367;28;20479;-51
2023/04/02 06:08:21;;;;;;;0.40;0.40;;;;;;;10.50;100.00;99763.50;5009559;28;20543;-50
2023/04/02 06:10:55;;;;;;;0.50;0.43;;;;;;;10.57;100.00;99778.31;4998737;28;20459;-49
2023/04/02 06:13:22;;;;;;;0.70;0.70;;;;;;;10.59;100.00;99772.00;4992973;28;20465;-51
2023/04/02 06:15:48;;;;;;;0.53;0.50;;;;;;;10.57;100.00;99773.84;5002918;28;20500;-51
2023/04/02 06:18:22;;;;;;;0.70;0.50;;;;;;;10.56;100.00;99782.75;4993934;28;20978;-51
2023/04/02 06:20:49;;;;;;;0.70;0.50;;;;;;;10.67;100.00;99787.66;4993274;28;20454;-49
2023/04/02 06:23:22;;;;;;;0.67;0.57;;;;;;;10.73;100.00;99792.75;5003846;28;20461;-50
2023/04/02 06:25:56;;;;;;;0.50;0.40;;;;;;;10.77;100.00;99798.81;5000178;28;20587;-50
2023/04/02 06:28:39;;;;;;;0.63;0.60;;;;;;;10.87;100.00;99797.56;5009412;28;20818;-51
2023/04/02 06:31:10;;;;;;;1.20;0.90;;;;;;;10.85;100.00;99805.59;4999181;28;20444;-51
2023/04/02 06:33:37;;;;;;;0.77;0.77;;;;;;;10.85;100.00;99810.91;5003389;28;20533;-51
2023/04/02 06:36:06;;;;;;;0.50;0.40;;;;;;;10.91;100.00;99815.13;5004415;28;21013;-49
2023/04/02 06:38:35;;;;;;;0.50;0.40;;;;;;;10.95;100.00;99811.41;5008925;28;20452;-53
2023/04/02 06:41:14;;;;;;;1.13;0.80;;;;;;;11.08;100.00;99822.44;4998831;28;20545;-50
2023/04/02 06:43:49;;;;;;;1.10;0.53;;;;;;;11.03;100.00;99825.31;5003912;28;20449;-49
2023/04/02 06:46:25;;;;;;;0.73;0.67;;;;;;;11.08;100.00;99827.78;4973172;28;21002;-52
2023/04/02 06:48:59;;;;;;;1.07;0.77;;;;;;;11.20;100.00;99837.94;4988343;28;20492;-54
2023/04/02 06:51:27;;;;;;;0.50;0.40;;;;;;;11.14;100.00;99840.84;4989128;28;20468;-52
2023/04/02 06:53:55;;;;;;;11.43;0.73;;;;;;;11.11;100.00;99848.97;4994876;28;20449;-53
2023/04/02 06:56:43;;;;;;;0.60;0.50;;;;;;;11.08;100.00;99854.38;5001782;28;20521;-52
2023/04/02 06:59:11;;;;;;;0.60;0.47;;;;;;;11.26;100.00;99854.56;4984542;28;20465;-53
2023/04/02 07:01:52;;;;;;;0.60;0.50;;;;;;;11.22;100.00;99860.91;4995111;28;20569;-54
2023/04/02 07:04:20;;;;;;;0.97;0.50;;;;;;;11.23;100.00;99864.44;4984876;28;20463;-54
2023/04/02 07:06:47;;;;;;;0.60;0.60;;;;;;;11.31;100.00;99866.81;5008543;28;20538;-54
2023/04/02 07:09:13;;;;;;;3.13;0.80;;;;;;;11.34;100.00;99875.53;5008881;28;20983;-52
2023/04/02 07:11:40;;;;;;;0.73;0.73;;;;;;;11.34;100.00;99878.19;5009127;28;20453;-53
2023/04/02 07:14:11;;;;;;;0.63;0.47;;;;;;;11.34;100.00;99887.97;5009407;28;20564;-52
2023/04/02 07:16:39;;;;;;;1.23;1.13;;;;;;;11.37;100.00;99880.72;5008689;28;20492;-52
2023/04/02 07:19:08;;;;;;;0.80;0.80;;;;;;;11.42;100.00;99891.22;5008713;28;20460;-52
2023/04/02 07:21:34;;;;;;;0.80;0.70;;;;;;;11.46;100.00;99896.34;5007337;28;20466;-53
2023/04/02 07:24:00;;;;;;;0.90;0.77;;;;;;;11.67;100.00;99900.00;5008741;28;20934;-53
2023/04/02 07:26:27;;;;;;;0.60;0.50;;;;;;;11.85;100.00;99911.72;5009367;28;20999;-53
2023/04/02 07:28:55;;;;;;;0.70;0.70;;;;;;;11.71;100.00;99909.59;5010456;28;20507;-53
2023/04/02 07:31:26;;;;;;;1.60;0.40;;;;;;;11.75;100.00;99921.84;5010052;28;20460;-53
2023/04/02 07:33:59;;;;;;;3.40;1.43;;;;;;;11.61;100.00;99918.84;5011221;28;20452;-54
2023/04/02 07:36:28;;;;;;;0.70;0.60;;;;;;;11.54;100.00;99934.19;5011919;28;20496;-53
2023/04/02 07:38:54;;;;;;;0.87;0.80;;;;;;;11.74;100.00;99929.88;5012518;28;20456;-56
2023/04/02 07:41:22;;;;;;;0.93;0.47;;;;;;;11.60;100.00;99935.75;5012010;28;20988;-53
2023/04/02 07:43:48;;;;;;;0.70;0.63;;;;;;;11.66;100.00;99938.19;5012115;28;20830;-53
2023/04/02 07:46:16;;;;;;;0.60;0.60;;;;;;;11.47;100.00;99946.00;5011928;28;20479;-53
2023/04/02 07:48:43;;;;;;;0.40;0.40;;;;;;;11.75;100.00;99942.28;5012369;28;20476;-53
2023/04/02 07:51:22;;;;;;;0.60;0.60;;;;;;;11.85;100.00;99952.53;5010923;28;20455;-54
2023/04/02 07:53:49;;;;;;;1.00;0.73;;;;;;;12.15;100.00;99955.78;5007306;28;20949;-53
2023/04/02 07:56:18;;;;;;;0.50;0.50;;;;;;;11.91;100.00;99955.88;5011860;28;21055;-53
2023/04/02 07:58:45;;;;;;;0.80;0.70;;;;;;;12.08;100.00;99959.63;5010935;28;20456;-53
2023/04/02 08:01:17;;;;;;;0.83;0.80;;;;;;;11.84;100.00;99974.78;5001779;28;20515;-53
2023/04/02 08:03:45;;;;;;;0.87;0.87;;;;;;;12.38;100.00;99968.19;5011944;28;20486;-55
2023/04/02 08:06:11;;;;;;;0.70;0.63;;;;;;;12.20;100.00;99978.69;5011738;28;21048;-53
2023/04/02 08:08:38;;;;;;;1.07;0.80;;;;;;;12.27;100.00;99986.41;5011676;28;20452;-53
2023/04/02 08:11:05;;;;;;;0.40;0.40;;;;;;;12.48;100.00;99994.47;5011728;28;20460;-54
2023/04/02 08:13:32;;;;;;;2.67;0.70;;;;;;;11.97;100.00;99985.81;5011599;28;20458;-55
2023/04/02 08:15:59;;;;;;;0.50;0.40;;;;;;;11.83;100.00;99990.81;5011777;28;20497;-54
2023/04/02 08:18:26;;;;;;;0.60;0.60;;;;;;;11.73;100.00;99989.41;5011520;28;20461;-53
2023/04/02 08:20:52;;;;;;;1.53;0.73;;;;;;;11.37;100.00;100000.47;5011773;28;20919;-53
2023/04/02 08:23:20;;;;;;;0.87;0.60;;;;;;;11.31;100.00;100005.16;5011424;28;20460;-54
2023/04/02 08:25:47;;;;;;;0.80;0.73;;;;;;;10.85;100.00;100023.63;5011040;28;20599;-54
2023/04/02 08:28:14;;;;;;;0.40;0.40;;;;;;;10.39;100.00;100035.75;5011257;28;20956;-53
2023/04/02 08:30:41;;;;;;;0.40;0.20;;;;;;;9.59;100.00;100031.06;5006913;28;20452;-52
2023/04/02 08:33:08;;;;;;;0.40;0.20;;;;;;;9.66;100.00;100051.22;5011295;28;20460;-51
2023/04/02 08:35:35;;;;;;;0.30;0.20;;;;;;;9.48;100.00;100049.13;5011174;28;20460;-52
2023/04/02 08:38:02;;;;;;;0.30;0.20;;;;;;;9.33;100.00;100061.00;5010678;28;20841;-51
2023/04/02 08:40:40;;;;;;;0.30;0.20;;;;;;;9.07;100.00;100055.53;5010976;28;20479;-53
2023/04/02 08:43:27;;;;;;;0.30;0.20;;;;;;;9.16;100.00;100069.41;5011322;28;20949;-52
2023/04/02 08:46:26;;;;;;;0.40;0.30;;;;;;;9.19;100.00;100079.09;4997897;28;20488;-51
2023/04/02 08:48:59;;;;;;;0.40;0.30;;;;;;;9.08;100.00;100071.41;5001649;28;20452;-53
2023/04/02 08:51:30;;;;;;;0.30;0.20;;;;;;;9.16;100.00;100090.63;5007737;28;20465;-51
2023/04/02 08:54:17;;;;;;;0.30;0.20;;;;;;;9.06;100.00;100099.75;5007476;28;20452;-52
2023/04/02 08:56:55;;;;;;;0.40;0.20;;;;;;;9.02;100.00;100106.00;5010753;28;20500;-52
2023/04/02 08:59:31;;;;;;;0.30;0.20;;;;;;;8.92;100.00;100109.81;5005293;28;20589;-52
2023/04/02 09:02:27;;;;;;;0.30;0.20;;;;;;;9.06;100.00;100099.75;5007284;28;20879;-52
2023/04/02 09:05:01;;;;;;;0.30;0.20;;;;;;;9.02;100.00;100110.44;5010709;28;20453;-53
2023/04/02 09:07:28;;;;;;;0.30;0.20;;;;;;;9.39;100.00;100113.03;4986391;28;20491;-52
2023/04/02 09:09:56;;;;;;;0.30;0.20;;;;;;;9.25;100.00;100116.03;5010689;28;20526;-53
2023/04/02 09:12:29;;;;;;;0.30;0.20;;;;;;;9.40;100.00;100130.69;5009405;28;20452;-53
2023/04/02 09:14:56;;;;;;;0.40;0.30;;;;;;;9.40;100.00;100133.31;5010519;28;21057;-52
2023/04/02 09:17:25;;;;;;;0.40;0.30;;;;;;;9.38;100.00;100137.81;5010292;28;20504;-52
2023/04/02 09:20:18;;;;;;;0.30;0.20;;;;;;;9.15;100.00;100141.91;5010291;28;20460;-51
2023/04/02 09:22:47;;;;;;;0.30;0.20;;;;;;;9.14;100.00;100155.22;5010518;28;20479;-54
2023/04/02 09:25:25;;;;;;;0.33;0.20;;;;;;;9.24;100.00;100153.22;5010498;28;20459;-53
2023/04/02 09:27:54;;;;;;;0.30;0.20;;;;;;;9.52;100.00;100164.84;5010485;28;20539;-52
2023/04/02 09:30:46;;;;;;;0.30;0.20;;;;;;;9.49;100.00;100157.84;5005277;28;20870;-52
2023/04/02 09:33:12;;;;;;;0.30;0.20;;;;;;;9.26;100.00;100156.69;5010247;28;20445;-51
2023/04/02 09:35:47;;;;;;;0.30;0.20;;;;;;;9.36;100.00;100167.03;5009797;28;21009;-53
2023/04/02 09:38:17;;;;;;;0.40;0.20;;;;;;;9.28;100.00;100176.09;4985847;28;20449;-51
2023/04/02 09:40:57;;;;;;;0.30;0.20;;;;;;;9.42;100.00;100184.56;5009807;28;20457;-52
2023/04/02 09:43:23;;;;;;;0.50;0.20;;;;;;;9.51;100.00;100184.34;5010098;28;20978;-53
2023/04/02 09:46:03;;;;;;;0.30;0.20;;;;;;;9.45;100.00;100192.44;4996345;28;20468;-51
2023/04/02 09:48:34;;;;;;;0.30;0.20;;;;;;;9.74;100.00;100200.53;5009911;28;20456;-51
2023/04/02 09:51:11;;;;;;;0.30;0.20;;;;;;;9.44;100.00;100206.59;5008618;28;20464;-52
2023/04/02 09:53:48;;;;;;;0.60;0.60;;;;;;;9.44;100.00;100203.97;4998221;28;20831;-52
2023/04/02 09:56:23;;;;;;;1.23;1.17;;;;;;;9.69;100.00;100206.84;5009712;28;20499;-52
2023/04/02 09:59:02;;;;;;;0.30;0.20;;;;;;;9.62;100.00;100208.81;5006909;28;20456;-51
2023/04/02 10:01:37;;;;;;;0.30;0.20;;;;;;;9.52;100.00;100211.75;5001655;28;20467;-53
2023/04/02 10:04:25;;;;;;;0.40;0.20;;;;;;;9.50;100.00;100222.38;5009628;28;20448;-51
2023/04/02 10:06:56;;;;;;;0.30;0.20;;;;;;;9.73;100.00;100220.03;5002277;28;20996;-50
2023/04/02 10:09:31;;;;;;;0.50;0.30;;;;;;;9.56;100.00;100232.84;4994709;28;20493;-51
2023/04/02 10:12:02;;;;;;;0.40;0.30;;;;;;;9.67;100.00;100235.22;4991265;28;20472;-51
2023/04/02 10:14:39;;;;;;;0.30;0.20;;;;;;;9.43;100.00;100249.97;5009661;28;20452;-52
2023/04/02 10:17:18;;;;;;;0.50;0.40;;;;;;;9.48;100.00;100254.28;4986823;28;20492;-51
2023/04/02 10:19:50;;;;;;;0.40;0.30;;;;;;;9.53;100.00;100267.41;5009339;28;20452;-53
2023/04/02 10:22:19;;;;;;;0.40;0.30;;;;;;;9.15;100.00;100271.84;5009268;28;20866;-51
2023/04/02 10:24:46;;;;;;;0.30;0.20;;;;;;;9.28;100.00;100271.56;5008232;28;20503;-51
2023/04/02 10:27:30;;;;;;;0.40;0.30;;;;;;;9.17;100.00;100283.28;5009086;28;21023;-51
2023/04/02 10:30:36;;;;;;;0.30;0.30;;;;;;;9.17;100.00;100277.97;4999563;28;20462;-50
2023/04/02 10:33:18;;;;;;;0.40;0.20;;;;;;;9.02;100.00;100291.59;4992995;28;20475;-50
2023/04/02 10:36:03;;;;;;;0.30;0.20;;;;;;;8.90;100.00;100290.06;5005484;28;20458;-50
2023/04/02 10:38:46;;;;;;;0.30;0.20;;;;;;;8.84;100.00;100294.66;4987820;28;20452;-52
2023/04/02 10:41:31;;;;;;;0.30;0.20;;;;;;;9.01;100.00;100303.09;4996580;28;20507;-52
2023/04/02 10:44:00;;;;;;;0.50;0.33;;;;;;;9.23;100.00;100307.94;5008664;28;20458;-51
2023/04/02 10:47:06;;;;;;;0.50;0.30;;;;;;;9.23;100.00;100314.13;5000274;28;20468;-51
2023/04/02 10:50:03;;;;;;;0.40;0.27;;;;;;;9.53;100.00;100323.13;5009360;28;20457;-50
2023/04/02 10:52:38;;;;;;;0.43;0.33;;;;;;;9.16;100.00;100331.94;5001981;28;20459;-51
2023/04/02 10:55:14;;;;;;;0.60;0.60;;;;;;;9.15;100.00;100348.75;4999366;28;20962;-51
2023/04/02 10:57:42;;;;;;;0.40;0.20;;;;;;;9.12;100.00;100348.81;4982546;28;20496;-53
2023/04/02 11:00:15;;;;;;;0.40;0.30;;;;;;;9.24;100.00;100349.47;4990046;28;20508;-51
2023/04/02 11:02:48;;;;;;;0.47;0.30;;;;;;;9.11;100.00;100362.13;5012468;28;20551;-51
2023/04/02 11:05:42;;;;;;;0.33;0.23;;;;;;;9.12;100.00;100362.09;5002246;28;20452;-51
2023/04/02 11:08:17;;;;;;;0.30;0.20;;;;;;;9.25;100.00;100362.69;5011126;28;20456;-51
2023/04/02 11:10:49;;;;;;;0.40;0.30;;;;;;;9.15;100.00;100372.63;5013117;28;20506;-51
2023/04/02 11:13:27;;;;;;;0.30;0.20;;;;;;;9.28;100.00;100372.34;5012938;28;20452;-50
2023/04/02 11:15:53;;;;;;;0.50;0.30;;;;;;;9.27;100.00;100378.56;5013286;28;20468;-51
2023/04/02 11:18:34;;;;;;;0.40;0.30;;;;;;;9.45;100.00;100386.97;5013181;28;20491;-51
2023/04/02 11:21:03;;;;;;;0.30;0.20;;;;;;;9.47;100.00;100394.94;5013233;28;20452;-50
2023/04/02 11:23:52;;;;;;;0.87;0.70;;;;;;;9.60;100.00;100399.06;4987778;28;20953;-51
2023/04/02 11:26:37;;;;;;;0.43;0.43;;;;;;;9.61;100.00;100410.53;5013367;28;20488;-50
2023/04/02 11:29:37;;;;;;;0.30;0.20;;;;;;;9.10;100.00;100405.44;5007970;28;20457;-50
2023/04/02 11:32:19;;;;;;;0.40;0.40;;;;;;;9.41;100.00;100410.97;4981480;28;21007;-54
2023/04/02 11:34:45;;;;;;;0.30;0.20;;;;;;;9.23;100.00;100417.56;5012544;28;20456;-50
2023/04/02 11:37:37;;;;;;;0.40;0.30;;;;;;;9.06;100.00;100417.03;4983564;28;20494;-51
2023/04/02 11:40:43;;;;;;;0.57;0.53;;;;;;;9.25;100.00;100421.03;5011422;28;20448;-50
2023/04/02 11:43:31;;;;;;;0.50;0.47;;;;;;;9.51;100.00;100431.09;4990658;28;20957;-52
2023/04/02 11:45:59;;;;;;;0.40;0.30;;;;;;;9.00;100.00;100427.75;4999886;28;20880;-51
2023/04/02 11:48:29;;;;;;;1.00;0.40;;;;;;;9.32;100.00;100435.94;5012824;28;20472;-52
2023/04/02 11:50:57;;;;;;;0.30;0.20;;;;;;;9.17;100.00;100444.19;5007542;28;20464;-52
2023/04/02 11:53:31;;;;;;;0.43;0.37;;;;;;;9.28;100.00;100446.63;5004268;28;20840;-51
2023/04/02 11:56:28;;;;;;;0.87;0.40;;;;;;;9.22;100.00;100449.41;5012502;28;20530;-51
2023/04/02 11:59:04;;;;;;;0.57;0.57;;;;;;;9.30;100.00;100450.09;5008598;28;20464;-52
2023/04/02 12:02:00;;;;;;;0.67;0.30;;;;;;;9.41;100.00;100458.72;5004167;28;20448;-51
2023/04/02 12:04:45;;;;;;;0.40;0.27;;;;;;;9.45;100.00;100455.97;4991244;28;20519;-52